Enter the Airport ICAO Code

Search by Airport or City

Current Weather

KSEA | Seattle–Tacoma International Airport

Seattle, Washington, United States

Last Update 6 Minutes Ago

Sky with Few Clouds

Temperature of 12 ºC

Light Winds from North

Temperature

12 ºC

Dew Point Temperature

10 ºC

Relative Humidity

87.61 %

Wind Direction

North (350º, Without Significant Variations)

Wind Velocity

7 km/h (04 kt)

Gusts

None

Visibility

Greater than 10 Miles

Sea Level Pressure

30.23 inHg (Inches of Mercury)

Layers of Clouds

5% to 30% of Sky Covered from 610 mts (2000 ft) Above Ground Level.

METAR KSEA 211453Z 35004KT 10SM FEW020 12/10 A3023 RMK AO2 SLP243 T01170100 56008

Weather Forecast

KSEA | Seattle–Tacoma International Airport

Seattle, Washington, United States

Forecast valid for the next 27 Hours

From now on it is expected:

Clear Sky

Light Winds from North

In 3 hours it is expected the begining of:

Light to Moderate Winds from NorthWest

In 12 hours it is expected the begining of:

Mostly Cloudy Sky

Light Winds from NorthEast

Maximum Temperature

No Data

Minimum Temperature

No Data

TAF KSEA 211120Z 2112/2218 02003KT P6SM SKC FM211800 31007KT P6SM SKC FM220300 03004KT P6SM BKN250